Aérodrome :
LOGIN :

S'inscrire | Disclaimer

   EN    FR    IT 

 










Légende :    VFR   VFR Marginal   IFR   IFR Intensif   IFR Très Intensif
Visi : 
Plafond : 
>= 8 km
>= 3000ft
5 à 8 km
1000 à 3000 ft
1500m à 5 km
500 à 1000 ft
800 à 1500m
200 à 500 ft
< 800m
< 200 ft
Symboles :   Orages  Brouillard  Fortes neiges  Fortes précipitations  Vent > 20 kt
SIGMETs :   Divers  Orages  Givrage  Turbulence  Onde Orograph.  Cendres Volcan.






- Altitude de l'aérodrome : 26 ft
- Code IATA : BIA


LFKB - Bastia

DERNIER METAR :
  • 220500Z AUTO 21004KT 160V240 9999 FEW088 07/06 Q1006 NOSIG

METARs EXPIRÉS :
  • 220430Z AUTO 29001KT 9999 SCT088 SCT250 08/06 Q1007 NOSIG
  • 220400Z AUTO 23001KT 9999 BKN088 09/06 Q1007 NOSIG
  • 220330Z AUTO 20004KT 170V230 9999 FEW086 09/07 Q1008 NOSIG
  • 220300Z AUTO 18005KT 150V220 9999 FEW084 10/07 Q1008 NOSIG
  • 220230Z AUTO 16007KT 100V220 CAVOK 10/07 Q1008 NOSIG

TAF TAF LFKB
Valide du 22 à 03h jusqu'au 23 à 03h UTC


220200Z 2203/2303 20004KT 9999 FEW040 SCT100 TX16/2212Z TN09/2206Z
BECMG 2210/2212 18012KT FEW030 FEW040TCU BKN045
TEMPO 2213/2217 17015G30KT 3000 +SHRA FEW020 FEW035CB BKN045
FM221700 28020G30KT 9999 FEW040
ATIS : +33 4 95 59 19 40



MET'MAP, la Météo Aéronautique d'un coup d'oeil ! - Copyright ORBIFLY Décembre 2007 - Disclaimer

ORBIFLY MET'MAP TEAM :

Programmation & Développement : Alexandra Zaïnal
Sur une idée originale de : Baudouin d'Aumeries
Assistance à la programmation : Marc-Olivier Méhu
Soutien technique & logistique : Manuel Goepfert

Contact : metmap@orbifly.com




SOURCES & CREDITS :

   NOAA